»·PEaware :: N172SP KTUS-KPHX

N172SP :: KTUS-KPHX

FLIGHT INFORMATION

Flight Status: Arrived
Operator: Privately registered:
United States
More flights under this callsign
Pilot: Scott F. (44849)
Aircraft: CESSNA 172 SKYHAWK
(C172)
More flights by this aircraft type
Origin: KTUS Tucson Intl
United States
Destination: KPHX Phoenix Sky Harbor Intl
United States
More flights between these airports :: More routes between these airports
Route:
File this flight plan on PilotEdge
Remarks:
Altitude:
(Current/Filed)
0ft
Speed:
(Current/Filed)
0kts
Departed: 03-Aug-23 05:55 PM
Arrived: 03-Aug-23 06:53 PM
Distance/Time
Traveled:
96nm/0:58
Distance/Time
To Go:
Arrived

Flight Plot

Page will automatically refresh every two minutes.

Flight plan parsing failed; only flown route is shown


Map Options




Map Legend


Flown Route
Filed Route
Departure Airport
Arrival Airport
Navaid (VOR, NDB)
Fix

Horizontal Profiles

Position Reports

Time Latitude Longitude Heading Altitude Ground
Speed
03-Aug-23 17:44 32.123782 -110.944950 223 2578ft 0kts
03-Aug-23 17:45 32.123782 -110.944950 223 2578ft 0kts
03-Aug-23 17:46 32.123730 -110.945033 246 2578ft 4kts
03-Aug-23 17:47 32.121313 -110.942954 136 2587ft 17kts
03-Aug-23 17:48 32.118715 -110.939912 134 2598ft 16kts
03-Aug-23 17:49 32.115288 -110.935860 131 2610ft 13kts
03-Aug-23 17:50 32.112353 -110.932448 134 2617ft 11kts
03-Aug-23 17:51 32.111356 -110.932343 249 2619ft 0kts
03-Aug-23 17:52 32.111356 -110.932343 249 2619ft 0kts
03-Aug-23 17:53 32.111352 -110.932356 249 2619ft 0kts
03-Aug-23 17:54 32.112681 -110.935361 314 2613ft 47kts
03-Aug-23 17:55 32.125798 -110.951940 307 2975ft 74kts
03-Aug-23 17:56 32.138776 -110.969033 307 3519ft 66kts
03-Aug-23 17:57 32.151919 -110.986400 309 3912ft 83kts
03-Aug-23 17:58 32.168882 -111.009245 309 4287ft 96kts
03-Aug-23 17:59 32.185657 -111.031830 308 4880ft 81kts
03-Aug-23 18:00 32.200698 -111.052056 308 5419ft 83kts
03-Aug-23 18:01 32.216007 -111.072964 307 5912ft 85kts
03-Aug-23 18:02 32.231341 -111.094009 307 6407ft 84kts
03-Aug-23 18:03 32.246732 -111.114879 309 6822ft 89kts
03-Aug-23 18:04 32.265112 -111.139435 309 6849ft 104kts
03-Aug-23 18:05 32.286001 -111.163313 329 6844ft 107kts
03-Aug-23 18:06 32.313059 -111.177516 323 6855ft 106kts
03-Aug-23 18:07 32.337825 -111.196391 324 6865ft 106kts
03-Aug-23 18:08 32.363216 -111.215010 325 6863ft 108kts
03-Aug-23 18:09 32.388602 -111.233943 323 6869ft 108kts
03-Aug-23 18:10 32.414179 -111.252863 323 6866ft 108kts
03-Aug-23 18:11 32.439537 -111.271438 324 6900ft 105kts
03-Aug-23 18:12 32.463870 -111.289305 324 7068ft 103kts
03-Aug-23 18:13 32.489709 -111.308137 324 6981ft 112kts
03-Aug-23 18:14 32.516142 -111.327288 324 6937ft 109kts
03-Aug-23 18:15 32.542016 -111.346194 324 6941ft 109kts
03-Aug-23 18:17 32.567916 -111.365139 324 6875ft 110kts
03-Aug-23 18:18 32.593782 -111.384068 323 6946ft 104kts
03-Aug-23 18:19 32.618842 -111.402495 323 6985ft 107kts
03-Aug-23 18:20 32.644590 -111.421370 324 7000ft 110kts
03-Aug-23 18:21 32.670725 -111.440501 322 6999ft 110kts
03-Aug-23 18:22 32.696970 -111.459782 324 7006ft 111kts
03-Aug-23 18:23 32.723217 -111.479063 323 7012ft 110kts
03-Aug-23 18:24 32.749360 -111.498288 323 7010ft 111kts
03-Aug-23 18:25 32.775615 -111.517605 323 7009ft 110kts
03-Aug-23 18:26 32.801788 -111.536893 323 7017ft 110kts
03-Aug-23 18:27 32.828119 -111.556288 323 7013ft 111kts
03-Aug-23 18:28 32.854227 -111.575565 323 6998ft 110kts
03-Aug-23 18:29 32.881763 -111.591622 331 7014ft 111kts
03-Aug-23 18:30 32.910657 -111.606130 329 7004ft 112kts
03-Aug-23 18:31 32.937662 -111.623548 325 7101ft 107kts
03-Aug-23 18:32 32.964436 -111.640694 326 7121ft 112kts
03-Aug-23 18:33 32.991872 -111.658508 326 7119ft 113kts
03-Aug-23 18:34 33.018726 -111.678427 322 7110ft 113kts
03-Aug-23 18:35 33.045045 -111.699087 321 7107ft 112kts
03-Aug-23 18:36 33.071513 -111.719555 321 6919ft 119kts
03-Aug-23 18:37 33.099525 -111.741562 322 6328ft 117kts
03-Aug-23 18:38 33.126273 -111.762444 322 5729ft 115kts
03-Aug-23 18:39 33.152980 -111.783347 322 5143ft 114kts
03-Aug-23 18:40 33.178112 -111.802981 321 4901ft 100kts
03-Aug-23 18:41 33.203083 -111.822196 323 4911ft 111kts
03-Aug-23 18:41 33.225061 -111.838817 322 4900ft 112kts
03-Aug-23 18:42 33.251618 -111.859204 322 4788ft 111kts
03-Aug-23 18:44 33.284337 -111.884249 323 4209ft 117kts
03-Aug-23 18:45 33.310881 -111.904395 323 3702ft 111kts
03-Aug-23 18:46 33.336635 -111.923705 323 3208ft 110kts
03-Aug-23 18:46 33.355949 -111.938108 323 2836ft 110kts
03-Aug-23 18:47 33.375853 -111.952855 324 2496ft 106kts
03-Aug-23 18:48 33.398161 -111.968723 323 2482ft 85kts
03-Aug-23 18:50 33.421146 -111.974270 316 2091ft 66kts
03-Aug-23 18:51 33.428872 -111.992081 267 1350ft 56kts
03-Aug-23 18:51 33.428826 -112.007101 264 1117ft 49kts
03-Aug-23 18:52 33.428248 -112.016577 176 1116ft 10kts
03-Aug-23 18:53 33.427739 -112.018181 278 1113ft 6kts
03-Aug-23 18:54 33.427770 -112.023269 271 1113ft 15kts
03-Aug-23 18:55 33.427034 -112.023963 131 1112ft 0kts

Navigation Log

Ident Type
Flight plan parsing failed, navigation log unavailable